Center, North Carolina
Current Conditions -  °F | °C
As of 6:54 PM on Wednesday 22 Oct 2014 (Local Time) from KINT Reporting Station
Clear Clear  
Wind Chill: 55°   Ceiling: Unl
Heat Index: 55°   Visibility: 10mi
Dew Point: 38°   Wind: 12mph
Humidity: 53%   Direction: 300°WNW
Pressure: 30.06"   Gusts: 21mph
Location:  36.1267°N, 80.6582°W
Report Text: KINT 222254Z AUTO 30010G18KT 10SM CLR 13/03 A3006 RMK AO2 SLP178 T01280033
Loading
Personal Weather Stations






























Interactive Weather Map
Tropical Storm Tracking
New forecast layout! Learn more

10-Day Weather Forecast

Advertisements
Track Severe Weather on mobile